Time;durP1;ratioP1;P1;durP2;ratioP2;P2;SDS_P1;SDS_P2;PMS_P1;PMS_P2;Temp;Humidity;BMP_temperature;BMP_pressure;BME280_temperature;BME280_humidity;BME280_pressure;Samples;Min_cycle;Max_cycle;Signal;HPM_P1;HPM_P2
2023/09/03 00:02:02;;;;;;;2.42;2.30;;;;;;;21.51;64.98;97883.66;4973555;28;20213;-81
2023/09/03 00:04:28;;;;;;;2.65;2.42;;;;;;;21.50;65.42;97890.03;4986161;28;20255;-81
2023/09/03 00:06:53;;;;;;;2.20;2.00;;;;;;;21.49;65.63;97888.47;4970353;28;20259;-81
2023/09/03 00:09:19;;;;;;;2.53;2.10;;;;;;;21.47;65.10;97898.56;4960369;28;20532;-81
2023/09/03 00:11:44;;;;;;;2.47;2.28;;;;;;;21.33;65.37;97903.84;5001403;28;20150;-81
2023/09/03 00:14:09;;;;;;;3.42;3.13;;;;;;;21.21;65.61;97901.72;4972181;28;20601;-81
2023/09/03 00:16:35;;;;;;;4.00;3.72;;;;;;;21.22;65.84;97907.81;4996811;28;20108;-81
2023/09/03 00:19:00;;;;;;;4.32;3.92;;;;;;;21.19;65.32;97903.09;4985719;28;20287;-81
2023/09/03 00:21:26;;;;;;;4.70;4.30;;;;;;;21.19;65.34;97916.34;4973595;28;20188;-81
2023/09/03 00:23:51;;;;;;;4.15;3.75;;;;;;;21.18;65.51;97912.91;5004150;28;20591;-80
2023/09/03 00:26:19;;;;;;;4.28;3.88;;;;;;;21.17;65.36;97921.16;4985421;28;20314;-81
2023/09/03 00:28:44;;;;;;;5.30;4.90;;;;;;;21.11;65.90;97912.50;4996094;28;20226;-82
2023/09/03 00:31:10;;;;;;;5.18;4.65;;;;;;;21.10;65.58;97917.03;4986430;28;20284;-81
2023/09/03 00:33:36;;;;;;;5.63;5.07;;;;;;;21.03;65.33;97916.63;5001409;28;20292;-81
2023/09/03 00:36:03;;;;;;;6.20;5.55;;;;;;;20.99;65.96;97925.44;4969709;28;20154;-81
2023/09/03 00:38:29;;;;;;;5.00;4.20;;;;;;;20.87;66.31;97916.16;4965422;28;20701;-81
2023/09/03 00:40:54;;;;;;;4.18;3.78;;;;;;;20.97;65.75;97923.09;4970296;28;20197;-81
2023/09/03 00:43:20;;;;;;;4.30;2.92;;;;;;;21.01;65.87;97923.28;4973152;28;20287;-81
2023/09/03 00:45:47;;;;;;;3.30;2.58;;;;;;;20.98;65.49;97914.09;5003553;28;20221;-81
2023/09/03 00:48:15;;;;;;;3.03;2.72;;;;;;;21.06;65.67;97931.13;4987471;28;20580;-82
2023/09/03 00:50:41;;;;;;;2.78;2.40;;;;;;;20.98;66.24;97927.31;4971718;28;20463;-81
2023/09/03 00:53:08;;;;;;;2.78;2.53;;;;;;;20.93;66.18;97932.72;4992899;28;20197;-81
2023/09/03 00:55:34;;;;;;;2.38;2.20;;;;;;;20.95;66.21;97926.03;4999044;28;20181;-81
2023/09/03 00:58:00;;;;;;;3.75;2.20;;;;;;;20.98;66.22;97929.97;4989168;28;20213;-81
2023/09/03 01:00:26;;;;;;;2.33;2.22;;;;;;;20.99;66.16;97928.91;4988648;28;20343;-81
2023/09/03 01:05:25;;;;;;;3.95;2.33;;;;;;;21.06;66.26;97931.94;4942954;28;20100;-87
2023/09/03 01:07:51;;;;;;;1.90;1.80;;;;;;;21.12;66.33;97937.91;4929963;28;20586;-87
2023/09/03 01:10:16;;;;;;;2.80;2.30;;;;;;;21.12;66.30;97936.03;4930124;28;20283;-87
2023/09/03 01:12:55;;;;;;;2.25;2.13;;;;;;;21.23;65.48;97939.31;4909835;28;20364;-87
2023/09/03 01:15:32;;;;;;;2.88;2.03;;;;;;;21.14;65.61;97938.41;4896496;28;20284;-87
2023/09/03 01:18:03;;;;;;;4.57;2.13;;;;;;;21.12;65.75;97944.00;4929100;28;20180;-88
2023/09/03 01:20:32;;;;;;;2.50;2.30;;;;;;;21.00;66.04;97927.81;4929570;28;20287;-87
2023/09/03 01:23:06;;;;;;;2.15;2.00;;;;;;;21.07;65.99;97932.72;4896788;28;20193;-87
2023/09/03 01:25:50;;;;;;;3.05;1.98;;;;;;;21.12;66.04;97944.00;4930186;28;20410;-87
2023/09/03 01:28:38;;;;;;;2.80;1.90;;;;;;;21.17;66.28;97950.28;4929644;28;20599;-88
2023/09/03 01:31:07;;;;;;;3.22;2.28;;;;;;;21.06;65.92;97945.19;4906682;28;20244;-88
2023/09/03 01:33:34;;;;;;;2.30;2.10;;;;;;;20.99;66.33;97955.38;4895238;28;20285;-87
2023/09/03 01:35:59;;;;;;;3.35;2.00;;;;;;;20.98;66.17;97956.44;4912402;28;20096;-87
2023/09/03 01:38:25;;;;;;;2.28;2.08;;;;;;;21.03;66.28;97956.34;4912786;28;20181;-87
2023/09/03 01:40:51;;;;;;;2.38;2.00;;;;;;;20.99;65.93;97952.72;4914549;28;20458;-87
2023/09/03 01:43:17;;;;;;;2.55;2.10;;;;;;;20.93;66.09;97943.31;4897822;28;20205;-87
2023/09/03 01:45:54;;;;;;;2.25;1.95;;;;;;;21.02;65.66;97961.94;4912044;28;20205;-88
2023/09/03 01:48:37;;;;;;;2.40;2.20;;;;;;;21.02;65.28;97954.78;4892695;28;20644;-87
2023/09/03 01:51:24;;;;;;;2.92;2.28;;;;;;;20.94;65.50;97963.41;4912975;28;20188;-88
2023/09/03 01:54:01;;;;;;;1.90;1.80;;;;;;;20.94;65.06;97956.25;4946728;28;20648;-87
2023/09/03 01:56:29;;;;;;;2.08;1.98;;;;;;;20.93;65.08;97959.19;4899479;28;20184;-87
2023/09/03 01:58:56;;;;;;;1.98;1.88;;;;;;;20.90;64.99;97954.47;4913479;28;20197;-87
2023/09/03 02:01:22;;;;;;;2.72;2.53;;;;;;;20.86;65.12;97958.78;4895011;28;20257;-87
2023/09/03 02:03:47;;;;;;;2.45;2.17;;;;;;;20.82;65.12;97957.78;4906993;28;20249;-87
2023/09/03 02:06:13;;;;;;;3.83;2.03;;;;;;;20.67;64.58;97935.03;4912918;28;20874;-87
2023/09/03 02:08:38;;;;;;;2.53;1.80;;;;;;;20.79;65.60;97953.09;4924035;28;20213;-87
2023/09/03 02:11:04;;;;;;;2.20;2.00;;;;;;;20.71;65.12;97950.03;4895078;28;20384;-87
2023/09/03 02:13:29;;;;;;;2.05;1.55;;;;;;;20.72;65.90;97953.47;4911376;28;20264;-87
2023/09/03 02:15:56;;;;;;;2.20;2.00;;;;;;;20.69;65.80;97954.81;4919297;28;20181;-88
2023/09/03 02:18:21;;;;;;;2.10;2.00;;;;;;;20.70;65.70;97961.72;4906193;28;20264;-87
2023/09/03 02:20:47;;;;;;;2.28;2.10;;;;;;;20.64;65.62;97962.84;4894574;28;20287;-87
2023/09/03 02:23:12;;;;;;;2.17;1.70;;;;;;;20.67;65.30;97954.34;4895654;28;20329;-88
2023/09/03 02:25:38;;;;;;;2.50;2.30;;;;;;;20.71;65.89;97965.91;4911018;28;20237;-87
2023/09/03 02:28:06;;;;;;;2.45;2.22;;;;;;;20.67;66.15;97972.88;4895342;28;20710;-88
2023/09/03 02:30:32;;;;;;;3.00;2.70;;;;;;;20.57;65.65;97976.44;4929119;28;20220;-88
2023/09/03 02:32:57;;;;;;;2.58;2.30;;;;;;;20.45;65.74;97970.03;4914172;28;20205;-88
2023/09/03 02:35:23;;;;;;;2.50;2.30;;;;;;;20.35;65.61;97971.75;4894777;28;20166;-88
2023/09/03 02:37:48;;;;;;;2.75;2.47;;;;;;;20.38;66.04;97987.03;4906148;28;20235;-87
2023/09/03 02:40:13;;;;;;;3.53;2.47;;;;;;;20.31;66.15;97993.78;4900616;28;20257;-88
2023/09/03 02:42:39;;;;;;;3.08;2.60;;;;;;;20.24;65.57;98002.09;4910840;28;20626;-88
2023/09/03 02:45:05;;;;;;;4.00;3.55;;;;;;;20.06;65.59;97973.78;4904733;28;20594;-88
2023/09/03 02:47:30;;;;;;;3.65;3.22;;;;;;;20.13;65.78;98001.41;4912927;28;20220;-87
2023/09/03 02:49:55;;;;;;;5.30;2.72;;;;;;;20.15;65.31;97993.22;4913253;28;20762;-88
2023/09/03 02:52:21;;;;;;;2.63;2.25;;;;;;;20.19;64.97;98005.56;4896818;28;20095;-88
2023/09/03 02:54:46;;;;;;;2.63;2.42;;;;;;;20.13;65.35;97995.34;4910546;28;20200;-88
2023/09/03 02:57:12;;;;;;;2.78;2.22;;;;;;;19.95;65.71;97979.22;4906322;28;20639;-88
2023/09/03 02:59:37;;;;;;;2.90;2.55;;;;;;;19.99;65.78;98011.16;4909805;28;20590;-87
2023/09/03 03:02:02;;;;;;;2.97;2.30;;;;;;;19.88;65.84;98007.84;4904300;28;20163;-86
2023/09/03 03:04:28;;;;;;;2.60;2.40;;;;;;;19.94;66.32;98008.56;4888920;28;20325;-87
2023/09/03 03:06:53;;;;;;;3.05;2.33;;;;;;;19.95;66.43;98015.44;4894523;28;20228;-88
2023/09/03 03:09:19;;;;;;;3.03;2.70;;;;;;;19.94;66.02;98004.06;4891200;28;20287;-88
2023/09/03 03:11:46;;;;;;;2.33;2.10;;;;;;;20.01;65.90;98009.00;4921300;28;20166;-87
2023/09/03 03:14:13;;;;;;;4.88;2.30;;;;;;;20.03;66.04;98012.13;4896843;28;20598;-87
2023/09/03 03:16:38;;;;;;;2.92;2.30;;;;;;;20.04;66.44;98019.00;4898269;28;20575;-88
2023/09/03 03:19:04;;;;;;;4.97;2.55;;;;;;;19.97;66.21;98006.13;4913186;28;20212;-88
2023/09/03 03:21:29;;;;;;;4.25;2.22;;;;;;;19.94;65.92;97988.19;4887948;28;20523;-87
2023/09/03 03:23:54;;;;;;;2.92;2.13;;;;;;;20.07;66.46;98001.81;4911003;28;20644;-88
2023/09/03 03:26:20;;;;;;;2.10;2.00;;;;;;;20.02;66.52;98006.06;4911849;28;20178;-87
2023/09/03 03:28:46;;;;;;;2.20;2.10;;;;;;;20.11;66.72;98016.00;4917369;28;20638;-88
2023/09/03 03:31:16;;;;;;;1.95;1.85;;;;;;;20.21;66.35;98008.72;4903117;28;20313;-88
2023/09/03 03:33:43;;;;;;;2.28;1.90;;;;;;;20.11;66.30;98005.44;4908720;28;20216;-88
2023/09/03 03:36:13;;;;;;;2.38;2.20;;;;;;;20.18;66.17;98008.50;4902882;28;20232;-87
2023/09/03 03:38:38;;;;;;;2.72;2.53;;;;;;;20.18;66.65;98017.22;4902189;28;20272;-87
2023/09/03 03:41:11;;;;;;;2.70;2.35;;;;;;;20.30;66.14;98022.06;4895720;28;20184;-87
2023/09/03 03:43:37;;;;;;;2.35;2.10;;;;;;;20.26;66.99;98025.59;4922394;28;20116;-88
2023/09/03 03:46:04;;;;;;;2.55;2.15;;;;;;;20.20;66.36;98011.63;4934435;28;20202;-87
2023/09/03 03:48:29;;;;;;;2.88;2.30;;;;;;;20.24;66.36;98012.66;4923361;28;20242;-88
2023/09/03 03:50:55;;;;;;;2.00;1.90;;;;;;;20.14;66.59;97997.72;4910333;28;20179;-87
2023/09/03 03:53:20;;;;;;;2.13;2.03;;;;;;;20.27;66.90;98009.44;4912289;28;20505;-88
2023/09/03 03:55:46;;;;;;;2.38;2.17;;;;;;;20.07;66.37;97981.44;4930431;28;20196;-88
2023/09/03 03:58:11;;;;;;;2.30;2.10;;;;;;;20.32;66.66;98006.72;4919796;28;20217;-88
2023/09/03 04:00:36;;;;;;;2.63;2.13;;;;;;;20.16;66.53;97985.00;4923015;28;20214;-88
2023/09/03 04:03:02;;;;;;;2.40;2.20;;;;;;;20.33;66.76;98004.84;4903981;28;20298;-88
2023/09/03 04:05:28;;;;;;;2.45;1.83;;;;;;;20.21;66.39;97986.78;4920296;28;20160;-88
2023/09/03 04:07:54;;;;;;;2.80;2.60;;;;;;;20.34;66.73;98006.41;4915638;28;20637;-88
2023/09/03 04:10:19;;;;;;;2.70;2.50;;;;;;;20.38;66.27;98007.44;4925321;28;20136;-88
2023/09/03 04:12:45;;;;;;;2.55;2.35;;;;;;;20.35;66.31;97992.13;4906291;28;20218;-88
2023/09/03 04:15:10;;;;;;;3.10;2.58;;;;;;;20.37;66.29;98005.84;4923457;28;20154;-88
2023/09/03 04:17:36;;;;;;;2.80;2.60;;;;;;;20.35;66.26;98010.63;4903487;28;20507;-88
2023/09/03 04:20:01;;;;;;;3.10;2.90;;;;;;;20.28;66.65;98007.56;4923344;28;20218;-87
2023/09/03 04:22:26;;;;;;;2.85;2.40;;;;;;;20.02;66.83;97984.94;4914182;28;20326;-88
2023/09/03 04:24:52;;;;;;;3.38;3.08;;;;;;;20.19;66.36;98020.66;4903060;28;20171;-88
2023/09/03 04:27:17;;;;;;;2.97;2.25;;;;;;;20.07;66.13;98009.72;4906066;28;20193;-88
2023/09/03 04:29:42;;;;;;;2.70;2.20;;;;;;;20.13;66.55;98016.50;4899355;28;20170;-87
2023/09/03 04:32:08;;;;;;;2.60;2.30;;;;;;;20.16;66.33;98015.94;4940917;28;20796;-88
2023/09/03 04:34:33;;;;;;;2.60;2.40;;;;;;;20.12;66.51;98015.72;4930178;28;20204;-88
2023/09/03 04:36:58;;;;;;;3.42;2.35;;;;;;;20.07;66.20;98022.94;4921482;28;20553;-87
2023/09/03 04:39:24;;;;;;;2.15;1.95;;;;;;;20.07;66.40;98030.88;4926189;28;20211;-88
2023/09/03 04:41:49;;;;;;;2.30;2.10;;;;;;;19.99;66.04;98037.56;4926723;28;21188;-88
2023/09/03 04:44:14;;;;;;;2.70;2.10;;;;;;;19.93;66.46;98044.78;4902843;28;20284;-88
2023/09/03 04:46:40;;;;;;;2.45;2.25;;;;;;;19.80;65.99;98029.63;4906621;28;20110;-88
2023/09/03 04:49:05;;;;;;;2.63;2.35;;;;;;;19.73;66.15;98047.66;4923684;28;20211;-88
2023/09/03 04:51:31;;;;;;;2.35;2.15;;;;;;;19.58;65.63;98044.09;4924510;28;20205;-88
2023/09/03 04:53:56;;;;;;;2.28;2.03;;;;;;;19.62;65.25;98060.97;4919528;28;20158;-87
2023/09/03 04:56:23;;;;;;;2.33;2.13;;;;;;;19.65;65.26;98075.47;4920370;28;20273;-88
2023/09/03 04:58:52;;;;;;;2.97;2.22;;;;;;;19.53;65.58;98064.50;4916296;28;20295;-87
2023/09/03 05:01:17;;;;;;;2.78;2.58;;;;;;;19.43;65.88;98054.84;4920783;28;20584;-88
2023/09/03 05:03:43;;;;;;;2.65;2.20;;;;;;;19.61;65.96;98085.81;4917207;28;20158;-88
2023/09/03 05:06:13;;;;;;;2.65;2.13;;;;;;;19.60;66.41;98084.25;4911513;28;20268;-87
2023/09/03 05:08:38;;;;;;;2.88;2.17;;;;;;;19.52;66.54;98087.50;4930910;28;20284;-88
2023/09/03 05:11:12;;;;;;;3.97;2.45;;;;;;;19.60;66.69;98100.13;4920520;28;20171;-86
2023/09/03 05:13:38;;;;;;;2.70;2.17;;;;;;;19.55;66.49;98102.81;4916757;28;20225;-87
2023/09/03 05:16:04;;;;;;;1.90;1.80;;;;;;;19.54;66.88;98080.09;4922710;28;20201;-88
2023/09/03 05:18:30;;;;;;;2.40;2.20;;;;;;;19.67;66.55;98077.84;4924155;28;20222;-86
2023/09/03 05:20:56;;;;;;;2.60;2.40;;;;;;;19.67;66.91;98064.63;4912235;28;20176;-87
2023/09/03 05:23:22;;;;;;;2.33;2.10;;;;;;;19.76;66.90;98061.13;4908798;28;20264;-87
2023/09/03 05:25:47;;;;;;;2.78;2.55;;;;;;;19.83;66.58;98061.56;4914034;28;20279;-88
2023/09/03 05:28:13;;;;;;;2.42;2.22;;;;;;;19.86;66.45;98054.13;4923822;28;20211;-88
2023/09/03 05:30:38;;;;;;;2.75;2.08;;;;;;;19.94;66.79;98062.22;4897674;28;20280;-87
2023/09/03 05:33:04;;;;;;;3.00;2.67;;;;;;;20.00;68.06;98066.38;4917773;28;20677;-87
2023/09/03 05:35:29;;;;;;;3.53;2.80;;;;;;;20.09;67.36;98076.31;4924828;28;20530;-88
2023/09/03 05:37:55;;;;;;;2.40;2.20;;;;;;;20.10;67.17;98070.75;4925249;28;20279;-87
2023/09/03 05:40:20;;;;;;;2.50;2.30;;;;;;;20.12;67.41;98079.19;4907150;28;20710;-87
2023/09/03 05:42:47;;;;;;;3.08;2.40;;;;;;;20.06;67.24;98076.88;4913859;28;20232;-87
2023/09/03 05:45:12;;;;;;;2.78;2.58;;;;;;;20.10;66.85;98075.25;4905462;28;20183;-87
2023/09/03 05:47:38;;;;;;;3.33;2.15;;;;;;;20.07;67.11;98057.31;4922922;28;20283;-87
2023/09/03 05:50:05;;;;;;;2.40;2.20;;;;;;;20.09;66.98;98071.03;4904572;28;20326;-87
2023/09/03 05:52:31;;;;;;;2.70;2.50;;;;;;;20.21;67.22;98092.56;4920979;28;20674;-86
2023/09/03 05:54:56;;;;;;;2.83;2.58;;;;;;;20.04;66.69;98065.81;4911904;28;20185;-87
2023/09/03 05:57:22;;;;;;;2.60;2.40;;;;;;;20.24;67.50;98097.28;4934186;28;20205;-86
2023/09/03 05:59:51;;;;;;;3.38;2.60;;;;;;;20.31;67.11;98092.41;4923204;28;20193;-87
2023/09/03 06:02:16;;;;;;;2.88;2.67;;;;;;;20.19;66.93;98079.63;4918877;28;20355;-86
2023/09/03 06:04:42;;;;;;;3.50;2.60;;;;;;;20.31;67.14;98095.06;4924240;28;20310;-87
2023/09/03 06:07:09;;;;;;;4.30;2.72;;;;;;;20.36;67.40;98094.22;4922580;28;20093;-87
2023/09/03 06:09:35;;;;;;;2.70;2.50;;;;;;;20.34;67.44;98085.75;4904316;28;20342;-86
2023/09/03 06:12:01;;;;;;;3.55;2.72;;;;;;;20.40;67.17;98089.91;4937489;28;20739;-85
2023/09/03 06:14:26;;;;;;;2.63;2.42;;;;;;;20.47;67.24;98095.63;4926492;28;20296;-86
2023/09/03 06:16:53;;;;;;;3.28;2.97;;;;;;;20.47;67.62;98103.56;4903623;28;20290;-86
2023/09/03 06:19:19;;;;;;;3.70;3.00;;;;;;;20.58;67.07;98117.47;4915679;28;20194;-87
2023/09/03 06:21:44;;;;;;;4.18;2.83;;;;;;;20.58;67.02;98118.25;4920760;28;20380;-86
2023/09/03 06:24:09;;;;;;;3.13;2.78;;;;;;;20.53;67.06;98105.09;4934157;28;20289;-87
2023/09/03 06:26:35;;;;;;;3.22;2.92;;;;;;;20.65;66.95;98117.91;4922156;28;20377;-86
2023/09/03 06:29:00;;;;;;;5.50;3.20;;;;;;;20.56;67.64;98103.72;4937356;28;20083;-86
2023/09/03 06:31:25;;;;;;;3.20;2.80;;;;;;;20.58;67.05;98098.94;4920451;28;20234;-86
2023/09/03 06:33:52;;;;;;;2.90;2.50;;;;;;;20.75;66.90;98106.38;4921627;28;20096;-86
2023/09/03 06:36:18;;;;;;;3.05;2.75;;;;;;;20.90;67.21;98122.03;4930888;28;20254;-87
2023/09/03 06:38:43;;;;;;;2.90;2.70;;;;;;;20.97;67.11;98124.31;4931030;28;20651;-86
2023/09/03 06:41:09;;;;;;;2.45;2.25;;;;;;;21.06;67.04;98117.28;4917069;28;20221;-86
2023/09/03 06:43:35;;;;;;;2.53;2.33;;;;;;;21.19;66.72;98126.34;4918232;28;20204;-86
2023/09/03 06:46:03;;;;;;;2.75;2.55;;;;;;;21.21;66.68;98118.09;4904148;28;20208;-86
2023/09/03 06:48:29;;;;;;;3.55;2.72;;;;;;;21.33;67.63;98143.06;4905514;28;20544;-86
2023/09/03 06:50:54;;;;;;;4.55;3.30;;;;;;;21.25;67.21;98125.19;4903169;28;20387;-85
2023/09/03 06:53:20;;;;;;;3.60;3.25;;;;;;;21.31;67.25;98121.38;4920513;28;20282;-86
2023/09/03 06:55:45;;;;;;;3.58;3.28;;;;;;;21.36;67.21;98136.41;4940513;28;20626;-85
2023/09/03 06:58:11;;;;;;;4.05;3.13;;;;;;;21.51;67.57;98156.59;4911448;28;20224;-85
2023/09/03 07:00:37;;;;;;;4.97;3.75;;;;;;;21.34;68.13;98133.25;4920675;28;20154;-85
2023/09/03 07:03:02;;;;;;;4.28;3.45;;;;;;;21.72;67.14;98170.25;4920547;28;20288;-86
2023/09/03 07:05:28;;;;;;;3.80;3.08;;;;;;;21.72;66.96;98164.94;4915531;28;20186;-85
2023/09/03 07:07:53;;;;;;;3.33;3.00;;;;;;;21.79;66.63;98148.66;4921318;28;20595;-85
2023/09/03 07:10:18;;;;;;;3.35;2.72;;;;;;;21.97;66.38;98168.19;4935034;28;20594;-86
2023/09/03 07:12:44;;;;;;;2.67;2.47;;;;;;;22.08;66.28;98161.63;4905939;28;20162;-84
2023/09/03 07:15:09;;;;;;;3.47;2.78;;;;;;;22.18;66.37;98171.25;4923341;28;20165;-86
2023/09/03 07:17:35;;;;;;;3.47;2.90;;;;;;;22.13;66.30;98161.53;4928796;28;20196;-86
2023/09/03 07:20:00;;;;;;;2.80;2.60;;;;;;;22.37;65.51;98169.31;4923420;28;20208;-86
2023/09/03 07:22:25;;;;;;;3.15;2.92;;;;;;;22.44;65.56;98171.56;4916073;28;20196;-86
2023/09/03 07:24:52;;;;;;;2.72;2.42;;;;;;;22.51;65.00;98163.19;4926633;28;20650;-85
2023/09/03 07:27:18;;;;;;;2.97;2.70;;;;;;;22.71;65.02;98180.56;4920671;28;20304;-86
2023/09/03 07:29:43;;;;;;;3.22;2.92;;;;;;;22.78;64.49;98168.44;4924367;28;20496;-85
2023/09/03 07:32:10;;;;;;;2.97;2.60;;;;;;;22.83;64.49;98170.19;4927743;28;20278;-85
2023/09/03 07:34:35;;;;;;;2.38;2.25;;;;;;;22.87;64.17;98165.84;4925728;28;20228;-84
2023/09/03 07:37:00;;;;;;;3.15;2.80;;;;;;;23.11;63.87;98184.16;4915406;28;20205;-84
2023/09/03 07:39:27;;;;;;;3.00;2.72;;;;;;;23.15;63.67;98181.69;4940307;28;20260;-85
2023/09/03 07:41:56;;;;;;;2.65;2.38;;;;;;;23.13;63.20;98178.56;4931336;28;20184;-85
2023/09/03 07:44:25;;;;;;;2.72;2.53;;;;;;;23.16;63.23;98189.38;4910054;28;20198;-85
2023/09/03 07:46:50;;;;;;;2.83;2.40;;;;;;;23.16;62.87;98177.97;4923221;28;20170;-85
2023/09/03 07:49:16;;;;;;;4.18;2.70;;;;;;;23.22;63.00;98191.91;4919740;28;20250;-85
2023/09/03 07:51:41;;;;;;;2.83;2.63;;;;;;;23.19;63.02;98166.72;4909481;28;20213;-85
2023/09/03 07:54:07;;;;;;;3.80;2.45;;;;;;;23.34;62.37;98169.03;4927587;28;20208;-84
2023/09/03 07:56:32;;;;;;;3.08;2.30;;;;;;;23.55;62.34;98179.16;4923412;28;20213;-85
2023/09/03 07:58:57;;;;;;;2.92;2.65;;;;;;;23.60;61.47;98181.69;4905986;28;20231;-83
2023/09/03 08:01:23;;;;;;;2.42;2.28;;;;;;;23.58;61.67;98169.75;4917461;28;20200;-84
2023/09/03 08:03:48;;;;;;;2.85;2.30;;;;;;;23.70;60.71;98181.41;4928213;28;20170;-85
2023/09/03 08:06:14;;;;;;;3.13;2.83;;;;;;;23.63;60.21;98181.06;4915445;28;20104;-84
2023/09/03 08:08:39;;;;;;;2.63;2.30;;;;;;;23.83;61.51;98192.28;4916847;28;20354;-85
2023/09/03 08:11:05;;;;;;;2.40;2.20;;;;;;;23.93;60.48;98184.03;4928389;28;20201;-85
2023/09/03 08:13:30;;;;;;;2.53;2.20;;;;;;;23.92;59.85;98185.91;4905497;28;20661;-85
2023/09/03 08:15:55;;;;;;;2.40;2.13;;;;;;;24.05;59.98;98186.88;4918684;28;20223;-85
2023/09/03 08:18:21;;;;;;;3.30;2.42;;;;;;;24.00;59.61;98195.00;4927908;28;20699;-85
2023/09/03 08:20:48;;;;;;;2.60;2.10;;;;;;;24.03;59.25;98190.97;4890541;28;20095;-85
2023/09/03 08:23:14;;;;;;;2.17;1.98;;;;;;;24.25;59.42;98200.75;4912534;28;20212;-84
2023/09/03 08:25:42;;;;;;;2.50;2.20;;;;;;;24.18;59.31;98213.69;4910941;28;20182;-87
2023/09/03 08:28:08;;;;;;;2.45;2.10;;;;;;;24.14;57.95;98200.22;4910609;28;20222;-87
2023/09/03 08:30:34;;;;;;;3.35;2.38;;;;;;;24.05;58.63;98210.84;4897161;28;20290;-86
2023/09/03 08:33:00;;;;;;;1.85;1.75;;;;;;;24.18;58.64;98216.34;4916168;28;20217;-83
2023/09/03 08:35:27;;;;;;;2.67;2.47;;;;;;;24.30;59.14;98219.25;4907574;28;20194;-84
2023/09/03 08:37:52;;;;;;;2.25;2.03;;;;;;;24.45;59.04;98216.16;4895920;28;20657;-85
2023/09/03 08:40:18;;;;;;;3.47;2.35;;;;;;;24.38;58.40;98212.34;4921817;28;20198;-85
2023/09/03 08:42:46;;;;;;;3.13;2.35;;;;;;;24.35;58.30;98232.41;4893369;28;20129;-86
2023/09/03 08:45:12;;;;;;;2.28;2.08;;;;;;;24.35;58.50;98234.25;4914934;28;20658;-84
2023/09/03 08:47:41;;;;;;;3.10;2.90;;;;;;;24.67;57.91;98227.78;4901410;28;20213;-85
2023/09/03 08:50:10;;;;;;;2.38;2.15;;;;;;;24.76;57.64;98247.25;4929356;28;20248;-86
2023/09/03 08:52:37;;;;;;;2.78;2.00;;;;;;;24.81;57.62;98252.44;4907647;28;20179;-86
2023/09/03 08:55:03;;;;;;;2.55;2.17;;;;;;;24.77;57.03;98254.13;4885468;28;20270;-85
2023/09/03 08:57:28;;;;;;;2.28;2.08;;;;;;;24.80;57.75;98264.16;4914232;28;20288;-84
2023/09/03 08:59:57;;;;;;;2.40;2.20;;;;;;;24.99;57.07;98261.22;4923802;28;20283;-85
2023/09/03 09:02:23;;;;;;;2.65;2.10;;;;;;;24.94;56.68;98268.56;4932277;28;20321;-85
2023/09/03 09:04:49;;;;;;;2.13;2.03;;;;;;;25.04;58.33;98257.63;4916400;28;20214;-86
2023/09/03 09:07:14;;;;;;;2.25;2.05;;;;;;;25.13;57.40;98249.63;4909207;28;20083;-84
2023/09/03 09:09:40;;;;;;;2.55;1.90;;;;;;;25.36;56.83;98271.59;4897981;28;20901;-86
2023/09/03 09:12:28;;;;;;;3.25;2.55;;;;;;;25.22;56.57;98275.19;4905042;28;20159;-86
2023/09/03 09:14:59;;;;;;;2.30;2.10;;;;;;;25.08;57.21;98255.88;4899749;28;20185;-86
2023/09/03 09:17:33;;;;;;;2.35;2.15;;;;;;;25.05;56.72;98259.16;4917076;28;20178;-84
2023/09/03 09:20:01;;;;;;;2.28;2.17;;;;;;;24.97;57.21;98258.06;4914329;28;20209;-85
2023/09/03 09:22:26;;;;;;;3.05;2.40;;;;;;;24.93;55.90;98256.34;4907063;28;20404;-87
2023/09/03 09:24:52;;;;;;;2.50;2.20;;;;;;;25.08;56.30;98247.88;4914944;28;20551;-85
2023/09/03 09:27:19;;;;;;;3.80;2.17;;;;;;;25.01;55.33;98253.69;4890172;28;20254;-86
2023/09/03 09:29:45;;;;;;;2.53;2.33;;;;;;;24.92;55.35;98265.44;4911375;28;20434;-85
2023/09/03 09:32:18;;;;;;;2.88;2.00;;;;;;;24.91;55.26;98255.88;4909788;28;20395;-85
2023/09/03 09:34:44;;;;;;;2.38;2.28;;;;;;;24.96;55.62;98266.38;4930883;28;20287;-86
2023/09/03 09:37:10;;;;;;;1.90;1.80;;;;;;;25.29;55.44;98272.06;4896991;28;20354;-86
2023/09/03 09:39:42;;;;;;;2.35;1.88;;;;;;;25.67;54.97;98273.28;4899677;28;20204;-88
2023/09/03 09:42:10;;;;;;;2.20;1.90;;;;;;;25.73;54.71;98288.03;4912936;28;20354;-85
2023/09/03 09:44:36;;;;;;;2.70;1.90;;;;;;;25.53;53.69;98268.91;4899146;28;20259;-86
2023/09/03 09:47:20;;;;;;;2.22;2.13;;;;;;;25.83;52.64;98271.69;4914457;28;20630;-85
2023/09/03 09:49:47;;;;;;;4.95;1.95;;;;;;;26.05;52.90;98264.59;4908203;28;21490;-85
2023/09/03 09:52:13;;;;;;;2.85;2.30;;;;;;;26.26;52.38;98268.09;4904707;28;20615;-88
2023/09/03 09:54:40;;;;;;;2.97;2.08;;;;;;;26.49;52.13;98260.63;4912562;28;20177;-87
2023/09/03 09:57:24;;;;;;;1.85;1.73;;;;;;;26.85;52.01;98258.53;4898954;28;20365;-85
2023/09/03 09:59:54;;;;;;;3.40;2.00;;;;;;;27.11;50.81;98261.03;4913129;28;20201;-85
2023/09/03 10:02:21;;;;;;;3.38;2.20;;;;;;;27.14;51.02;98267.59;4894302;28;20707;-85
2023/09/03 10:04:47;;;;;;;2.65;2.03;;;;;;;27.00;49.80;98265.97;4908118;28;20249;-86
2023/09/03 10:07:13;;;;;;;1.65;1.55;;;;;;;26.96;49.48;98264.28;4926863;28;20620;-86
2023/09/03 10:09:39;;;;;;;2.08;1.90;;;;;;;26.95;50.19;98258.16;4897967;28;20243;-85
2023/09/03 10:12:06;;;;;;;2.67;2.20;;;;;;;27.24;50.49;98256.50;4896392;28;20588;-86
2023/09/03 10:14:32;;;;;;;2.80;1.92;;;;;;;27.19;50.37;98254.03;4897717;28;20111;-85
2023/09/03 10:17:00;;;;;;;2.30;2.08;;;;;;;27.46;49.34;98264.19;4929879;28;20221;-87
2023/09/03 10:19:38;;;;;;;4.95;2.13;;;;;;;27.55;49.29;98255.31;4896749;28;20217;-85
2023/09/03 10:22:05;;;;;;;2.25;2.15;;;;;;;27.52;49.16;98267.47;4918978;28;20210;-86
2023/09/03 10:24:32;;;;;;;3.78;2.20;;;;;;;27.20;48.55;98255.63;4927868;28;20329;-87
2023/09/03 10:27:02;;;;;;;2.40;2.25;;;;;;;27.36;48.94;98245.88;4897084;28;20277;-87
2023/09/03 10:29:29;;;;;;;2.55;2.35;;;;;;;27.43;48.06;98256.06;4942016;28;20303;-86
2023/09/03 10:31:55;;;;;;;2.65;2.45;;;;;;;27.45;48.42;98245.81;4908577;28;20213;-86
2023/09/03 10:34:20;;;;;;;2.63;2.42;;;;;;;27.63;47.89;98241.84;4931049;28;20189;-86
2023/09/03 10:37:22;;;;;;;2.65;2.45;;;;;;;27.91;47.87;98248.50;4911965;28;20139;-85
2023/09/03 10:39:48;;;;;;;2.42;2.30;;;;;;;27.88;48.14;98243.78;4832316;29;20194;-87
2023/09/03 10:42:16;;;;;;;3.10;2.42;;;;;;;28.05;48.58;98246.28;4832548;29;20272;-86
2023/09/03 10:44:42;;;;;;;3.13;2.22;;;;;;;27.92;48.94;98253.53;4851515;29;20205;-85
2023/09/03 10:47:08;;;;;;;2.90;2.53;;;;;;;28.09;47.71;98243.75;4847592;29;20723;-87
2023/09/03 10:49:44;;;;;;;2.50;2.22;;;;;;;28.32;47.36;98242.16;4836296;29;20217;-87
2023/09/03 10:52:28;;;;;;;2.70;2.50;;;;;;;28.25;47.45;98243.88;4846397;29;20266;-85
2023/09/03 10:55:15;;;;;;;3.00;2.80;;;;;;;28.40;47.79;98237.84;4843588;29;20404;-85
2023/09/03 10:57:42;;;;;;;3.97;2.88;;;;;;;28.43;47.38;98237.16;4850411;29;20204;-85
2023/09/03 11:00:15;;;;;;;3.08;2.88;;;;;;;28.25;46.88;98249.22;4850550;29;20118;-86
2023/09/03 11:02:42;;;;;;;3.05;2.85;;;;;;;27.98;46.72;98246.88;4834861;29;20318;-85
2023/09/03 11:05:16;;;;;;;2.72;2.53;;;;;;;28.46;47.43;98249.88;4832775;29;20248;-84
2023/09/03 11:07:42;;;;;;;;;;;;;;;28.47;45.37;98248.75;4817245;29;20587;-85
2023/09/03 11:10:20;;;;;;;2.28;2.08;;;;;;;28.77;45.26;98246.63;4809122;29;20518;-85
2023/09/03 11:12:46;;;;;;;2.60;2.40;;;;;;;28.67;45.40;98255.13;4868382;28;20117;-86
2023/09/03 11:15:13;;;;;;;3.05;2.83;;;;;;;28.72;44.08;98251.41;4916841;28;20224;-86
2023/09/03 11:17:41;;;;;;;2.97;2.78;;;;;;;28.80;45.39;98247.06;4912890;28;20194;-87
2023/09/03 11:20:08;;;;;;;2.85;2.65;;;;;;;29.08;44.83;98245.22;4912468;28;20260;-85
2023/09/03 11:22:37;;;;;;;3.20;2.58;;;;;;;29.13;44.85;98253.00;4908786;28;20162;-85
2023/09/03 11:25:04;;;;;;;2.63;2.42;;;;;;;29.00;44.60;98240.00;4895985;28;20209;-85
2023/09/03 11:27:29;;;;;;;2.45;2.33;;;;;;;29.09;45.40;98244.06;4908242;28;20544;-85
2023/09/03 11:30:07;;;;;;;2.58;2.38;;;;;;;28.58;44.72;98247.22;4907112;28;20185;-87
2023/09/03 11:32:37;;;;;;;2.88;2.40;;;;;;;28.47;45.58;98245.31;4889565;28;20183;-87
2023/09/03 11:35:05;;;;;;;2.67;2.50;;;;;;;28.49;46.60;98238.47;4928402;28;20188;-86
2023/09/03 11:37:30;;;;;;;2.90;2.70;;;;;;;28.71;45.87;98257.91;4925978;28;20205;-86